This is the latest recevied weather packets stored in our database for station/object SP9WPN-12. If no packets are shown the sender has not sent any weather packets the latest 10 day(s).
| Time | Temp. | Humidity | Pressure | Rain* | Wind** | Luminosity | Snow |
|---|---|---|---|---|---|---|---|
| 1777777840 | 6.11° C | 97% | 1021.1 hPa | - | - | - | - |
| 1777777243 | 6.11° C | 92% | 1021.1 hPa | - | - | - | - |
| 1777776645 | 6.11° C | 92% | 1021.1 hPa | - | - | - | - |
| 1777776047 | 6.11° C | 90% | 1021.1 hPa | - | - | - | - |
| 1777775450 | 5.56° C | 92% | 1021.1 hPa | - | - | - | - |
| 1777774847 | 5.56° C | 93% | 1021.3 hPa | - | - | - | - |
| 1777774249 | 5.56° C | 91% | 1021.2 hPa | - | - | - | - |
| 1777773651 | 6.11° C | 89% | 1021.2 hPa | - | - | - | - |
| 1777773054 | 6.11° C | 88% | 1021.2 hPa | - | - | - | - |
| 1777772456 | 6.11° C | 88% | 1021.4 hPa | - | - | - | - |
| 1777771858 | 6.67° C | 87% | 1021.3 hPa | - | - | - | - |
| 1777771260 | 6.11° C | 89% | 1021.3 hPa | - | - | - | - |
| 1777770663 | 6.67° C | 88% | 1021.3 hPa | - | - | - | - |
| 1777770063 | 6.67° C | 86% | 1021.2 hPa | - | - | - | - |
| 1777769465 | 7.22° C | 81% | 1021.3 hPa | - | - | - | - |
| 1777768868 | 7.22° C | 82% | 1021.2 hPa | - | - | - | - |
| 1777768270 | 7.22° C | 81% | 1021.4 hPa | - | - | - | - |
| 1777767671 | 7.22° C | 81% | 1021.3 hPa | - | - | - | - |
| 1777767073 | 7.78° C | 78% | 1021.3 hPa | - | - | - | - |
| 1777766475 | 8.33° C | 75% | 1021.2 hPa | - | - | - | - |
| 1777765878 | 8.33° C | 76% | 1021.1 hPa | - | - | - | - |
| 1777765280 | 8.33° C | 75% | 1021.3 hPa | - | - | - | - |
| 1777764683 | 8.89° C | 75% | 1021.3 hPa | - | - | - | - |
| 1777764085 | 8.89° C | 73% | 1021.3 hPa | - | - | - | - |
| 1777763487 | 8.89° C | 74% | 1021.4 hPa | - | - | - | - |
* Rain since midnight (hover to see other rain measurements)
** Current wind speed in m/s (hover to see current wind gust speed)